Bellville, Ohio
Current Conditions -  °F | °C
As of 12:52 AM on Friday 19 Dec 2014 (Local Time) from KMFD Reporting Station
Haze Haze  
Wind Chill: 19°   Ceiling: 500
Heat Index: 27°   Visibility: 5mi
Dew Point: 25°   Wind: 7mph
Humidity: 92%   Direction: 260°W
Pressure: 30.16"   Gusts: NA
Location:  40.62°N, 82.51°W
Report Text: KMFD 190552Z AUTO 26006KT 5SM BR OVC005 M03/M04 A3016 RMK AO2 SLP230 T10281039 11028 21028 50001
Loading
Personal Weather Stations






























Interactive Weather Map New forecast layout! Learn more

10-Day Weather Forecast

Advertisements
Track Severe Weather on mobile